Time;durP1;ratioP1;P1;durP2;ratioP2;P2;SDS_P1;SDS_P2;PMS_P1;PMS_P2;Temp;Humidity;BMP_temperature;BMP_pressure;BME280_temperature;BME280_humidity;BME280_pressure;Samples;Min_cycle;Max_cycle;Signal;HPM_P1;HPM_P2
2022/06/13 00:00:32;;;;;;;5.97;4.85;;;;;;;15.61;100.00;98280.44;2596816;28;20053;-81
2022/06/13 00:01:55;;;;;;;5.43;4.93;;;;;;;15.61;100.00;98283.06;2596712;28;20864;-84
2022/06/13 00:03:10;;;;;;;6.70;5.32;;;;;;;15.67;100.00;98292.47;2597061;28;20042;-90
2022/06/13 00:04:26;;;;;;;6.60;5.30;;;;;;;15.61;100.00;98284.88;2597050;28;20388;-82
2022/06/13 00:05:42;;;;;;;6.50;4.82;;;;;;;15.62;100.00;98279.50;2596641;28;20905;-81
2022/06/13 00:06:57;;;;;;;8.40;5.22;;;;;;;15.67;99.99;98287.19;2596513;28;20476;-84
2022/06/13 00:08:13;;;;;;;6.40;5.10;;;;;;;15.70;100.00;98279.09;2596686;28;20049;-81
2022/06/13 00:09:29;;;;;;;6.65;5.35;;;;;;;15.76;99.96;98293.78;2596428;28;20050;-80
2022/06/13 00:10:45;;;;;;;6.10;5.30;;;;;;;15.73;100.00;98286.00;2596042;28;20046;-81
2022/06/13 00:12:00;;;;;;;6.88;5.10;;;;;;;15.71;98.99;98301.91;2597256;28;20042;-80
2022/06/13 00:13:16;;;;;;;5.18;4.68;;;;;;;15.61;98.50;98303.34;2596861;28;20402;-81
2022/06/13 00:14:32;;;;;;;5.47;4.85;;;;;;;15.52;99.01;98302.03;2596689;28;20053;-82
2022/06/13 00:15:47;;;;;;;5.95;5.32;;;;;;;15.50;99.90;98304.72;2596634;28;20071;-81
2022/06/13 00:17:03;;;;;;;5.40;4.90;;;;;;;15.53;99.57;98293.19;2596455;28;20053;-85
2022/06/13 00:18:18;;;;;;;8.30;4.93;;;;;;;15.57;100.00;98300.00;2596696;28;20136;-81
2022/06/13 00:19:35;;;;;;;8.10;5.15;;;;;;;15.51;100.00;98309.06;2596805;28;20508;-81
2022/06/13 00:20:50;;;;;;;6.32;5.22;;;;;;;15.45;100.00;98317.31;2596725;28;20484;-82
2022/06/13 00:22:06;;;;;;;6.18;5.07;;;;;;;15.51;100.00;98319.63;2596614;28;20049;-82
2022/06/13 00:23:22;;;;;;;5.93;5.22;;;;;;;15.66;100.00;98311.88;2596474;28;20050;-83
2022/06/13 00:24:39;;;;;;;6.95;5.13;;;;;;;15.73;100.00;98302.72;2596504;28;20439;-81
2022/06/13 00:25:54;;;;;;;6.70;5.15;;;;;;;15.76;100.00;98305.19;2596696;28;20130;-81
2022/06/13 00:27:10;;;;;;;5.85;4.95;;;;;;;15.80;100.00;98308.53;2596743;28;20100;-82
2022/06/13 00:28:26;;;;;;;6.10;5.50;;;;;;;15.79;100.00;98310.31;2596395;28;20057;-82
2022/06/13 00:29:47;;;;;;;7.25;5.35;;;;;;;15.78;100.00;98315.66;2596664;28;20100;-82
2022/06/13 00:31:03;;;;;;;7.47;5.30;;;;;;;15.80;99.82;98319.94;2596651;28;20136;-85
2022/06/13 00:32:18;;;;;;;6.22;5.28;;;;;;;15.81;99.61;98313.72;2596694;28;20492;-82
2022/06/13 00:33:34;;;;;;;5.78;5.13;;;;;;;15.88;99.30;98303.69;2596466;28;20416;-82
2022/06/13 00:34:51;;;;;;;7.15;5.20;;;;;;;15.84;99.94;98290.72;2596371;28;20103;-81
2022/06/13 00:36:07;;;;;;;6.95;4.90;;;;;;;15.70;100.00;98294.09;2596422;28;20140;-81
2022/06/13 00:37:22;;;;;;;6.65;5.93;;;;;;;15.70;100.00;98296.75;2596699;28;20053;-81
2022/06/13 00:38:38;;;;;;;6.70;4.97;;;;;;;15.63;100.00;98302.31;2596562;28;20052;-82
2022/06/13 00:39:54;;;;;;;5.60;5.10;;;;;;;15.73;100.00;98300.06;2596743;28;20504;-81
2022/06/13 00:41:13;;;;;;;7.65;5.50;;;;;;;15.73;100.00;98293.94;2596254;28;20045;-82
2022/06/13 00:42:28;;;;;;;8.35;4.93;;;;;;;15.82;100.00;98290.81;2596453;28;20059;-84
2022/06/13 00:43:45;;;;;;;7.43;5.00;;;;;;;15.78;100.00;98281.34;2596499;28;20080;-82
2022/06/13 00:45:19;;;;;;;6.30;5.70;;;;;;;15.62;100.00;98274.22;2596618;28;20565;-83
2022/06/13 00:46:34;;;;;;;;;;;;;;;15.58;100.00;98272.69;2596974;28;20069;-83
2022/06/13 00:47:53;;;;;;;5.97;5.38;;;;;;;15.58;100.00;98272.69;2596580;28;19968;-81
2022/06/13 00:49:13;;;;;;;6.55;5.15;;;;;;;15.47;100.00;98270.59;2596587;28;20045;-82
2022/06/13 00:50:34;;;;;;;8.27;5.70;;;;;;;15.47;100.00;98273.25;2596344;28;20435;-86
2022/06/13 00:51:56;;;;;;;6.72;5.28;;;;;;;15.56;100.00;98281.59;2596682;28;20164;-82
2022/06/13 00:53:21;;;;;;;8.23;5.63;;;;;;;15.54;100.00;98271.97;2596265;28;20095;-83
2022/06/13 00:54:39;;;;;;;7.95;5.30;;;;;;;15.65;100.00;98266.16;2596072;28;20042;-82
2022/06/13 00:55:59;;;;;;;6.03;4.85;;;;;;;15.70;100.00;98272.97;2596192;28;20091;-82
2022/06/13 00:57:18;;;;;;;6.35;4.93;;;;;;;15.65;100.00;98271.44;2596619;28;20053;-81
2022/06/13 00:58:39;;;;;;;6.88;5.60;;;;;;;15.59;100.00;98271.75;2596574;28;20110;-81
2022/06/13 01:00:03;;;;;;;5.70;5.07;;;;;;;15.44;100.00;98272.53;2596371;28;20155;-81
2022/06/13 01:01:22;;;;;;;6.00;5.40;;;;;;;15.43;100.00;98274.31;2596244;28;20060;-82
2022/06/13 01:02:41;;;;;;;5.45;4.90;;;;;;;15.53;100.00;98266.78;2596444;28;20531;-81
2022/06/13 01:03:58;;;;;;;5.57;5.07;;;;;;;15.57;100.00;98265.69;2596232;28;20060;-81
2022/06/13 01:05:20;;;;;;;7.38;4.88;;;;;;;15.58;100.00;98263.94;2595923;28;20053;-82
2022/06/13 01:06:41;;;;;;;5.97;4.60;;;;;;;15.55;100.00;98259.66;2596444;28;20508;-82
2022/06/13 01:07:59;;;;;;;5.65;4.95;;;;;;;15.35;100.00;98260.66;2596064;28;20091;-84
2022/06/13 01:09:18;;;;;;;6.00;5.40;;;;;;;15.41;100.00;98268.25;2596095;28;20103;-83
2022/06/13 01:12:16;;;;;;;8.07;5.63;;;;;;;15.46;100.00;98254.84;2595896;28;20057;-82
2022/06/13 01:14:04;;;;;;;9.15;5.75;;;;;;;15.57;100.00;98260.41;2596900;28;20917;-81
2022/06/13 01:15:39;;;;;;;7.63;5.03;;;;;;;15.63;100.00;98262.72;2594703;28;20124;-81
2022/06/13 01:17:13;;;;;;;6.18;4.97;;;;;;;15.73;100.00;98257.84;2596225;28;20133;-81
2022/06/13 01:18:54;;;;;;;7.53;5.22;;;;;;;15.74;100.00;98259.56;2596107;28;20132;-81
2022/06/13 01:20:39;;;;;;;6.20;5.50;;;;;;;15.89;99.56;98265.84;2595759;28;20045;-81
2022/06/13 01:22:19;;;;;;;6.63;5.10;;;;;;;15.91;99.55;98265.75;2595767;28;20535;-81
2022/06/13 01:23:43;;;;;;;7.18;5.50;;;;;;;15.94;99.17;98263.81;2595920;28;20423;-81
2022/06/13 01:25:13;;;;;;;5.78;5.03;;;;;;;15.85;99.32;98261.63;2595907;28;20085;-82
2022/06/13 01:26:59;;;;;;;6.13;5.05;;;;;;;15.89;99.43;98255.28;2596029;28;20052;-83
2022/06/13 01:28:46;;;;;;;5.68;5.00;;;;;;;15.92;99.34;98254.25;2595823;28;20067;-82
2022/06/13 01:30:32;;;;;;;7.13;5.22;;;;;;;15.95;99.55;98260.25;2595855;28;20054;-81
2022/06/13 01:31:56;;;;;;;7.25;5.50;;;;;;;15.69;100.00;98256.28;2596006;28;20092;-83
2022/06/13 01:33:27;;;;;;;6.63;4.82;;;;;;;15.77;100.00;98258.53;2595728;28;20374;-83
2022/06/13 01:35:04;;;;;;;6.57;4.70;;;;;;;15.70;100.00;98260.63;2595907;28;20099;-84
2022/06/13 01:36:56;;;;;;;5.80;5.05;;;;;;;15.65;100.00;98255.59;2596252;28;20099;-81
2022/06/13 01:38:19;;;;;;;6.85;5.18;;;;;;;15.60;100.00;98254.13;2596147;28;20136;-81
2022/06/13 01:39:53;;;;;;;8.15;5.38;;;;;;;15.50;100.00;98253.75;2596029;28;20562;-82
2022/06/13 01:41:23;;;;;;;6.18;5.57;;;;;;;15.49;100.00;98244.13;2595944;28;20057;-80
2022/06/13 01:43:02;;;;;;;8.00;5.35;;;;;;;15.37;100.00;98240.34;2595903;28;20077;-82
2022/06/13 01:44:27;;;;;;;5.45;4.95;;;;;;;15.45;100.00;98243.44;2595613;28;20049;-81
2022/06/13 01:46:08;;;;;;;6.20;5.60;;;;;;;15.46;100.00;98247.78;2595641;28;20492;-81
2022/06/13 01:47:49;;;;;;;5.75;5.22;;;;;;;15.55;100.00;98243.81;2594348;28;20115;-80
2022/06/13 01:49:13;;;;;;;5.57;5.03;;;;;;;15.60;100.00;98254.13;2595652;28;20619;-84
2022/06/13 01:51:01;;;;;;;5.60;5.10;;;;;;;15.62;100.00;98261.03;2596026;28;20331;-82
2022/06/13 01:52:38;;;;;;;7.20;5.10;;;;;;;15.54;100.00;98271.13;2595800;28;20053;-88
2022/06/13 01:54:32;;;;;;;5.70;5.10;;;;;;;15.78;100.00;98283.97;2595721;28;20049;-81
2022/06/13 01:55:51;;;;;;;6.32;5.25;;;;;;;15.91;99.34;98282.44;2595613;28;20061;-81
2022/06/13 01:57:18;;;;;;;5.40;4.90;;;;;;;15.76;100.00;98289.34;2596066;28;20476;-81
2022/06/13 01:58:44;;;;;;;6.80;5.57;;;;;;;15.80;100.00;98280.34;2595507;28;20135;-84
2022/06/13 02:00:15;;;;;;;8.32;5.22;;;;;;;15.77;99.62;98271.72;2595682;28;20099;-81
2022/06/13 02:01:41;;;;;;;6.55;4.70;;;;;;;15.74;99.77;98269.25;2595275;28;20231;-82
2022/06/13 02:03:27;;;;;;;6.88;5.57;;;;;;;15.71;100.00;98259.69;2595856;28;20140;-82
2022/06/13 02:05:36;;;;;;;5.78;5.28;;;;;;;15.69;100.00;98269.47;2595816;28;20540;-81
2022/06/13 02:07:03;;;;;;;7.38;5.53;;;;;;;15.61;100.00;98267.25;2593283;28;20064;-83
2022/06/13 02:08:26;;;;;;;10.15;5.40;;;;;;;15.54;100.00;98271.97;2593398;28;20573;-82
2022/06/13 02:09:50;;;;;;;6.20;5.50;;;;;;;15.48;100.00;98277.56;2594500;28;20568;-82
2022/06/13 02:11:30;;;;;;;7.07;5.95;;;;;;;15.45;100.00;98282.16;2593748;28;20049;-81
2022/06/13 02:12:52;;;;;;;7.65;5.80;;;;;;;15.46;100.00;98279.44;2595821;28;20107;-80
2022/06/13 02:14:14;;;;;;;5.95;5.38;;;;;;;15.46;100.00;98281.22;2595760;28;20050;-81
2022/06/13 02:15:54;;;;;;;7.82;5.70;;;;;;;15.40;100.00;98285.00;2595828;28;20103;-81
2022/06/13 02:17:15;;;;;;;7.43;5.78;;;;;;;15.27;100.00;98286.56;2595642;28;20050;-81
2022/06/13 02:18:35;;;;;;;8.48;5.40;;;;;;;15.29;100.00;98282.94;2595906;28;20393;-81
2022/06/13 02:19:56;;;;;;;6.40;5.80;;;;;;;15.34;100.00;98275.63;2595769;28;20576;-81
2022/06/13 02:21:14;;;;;;;6.55;5.45;;;;;;;15.38;100.00;98273.69;2595650;28;20056;-81
2022/06/13 02:22:41;;;;;;;5.95;5.32;;;;;;;15.41;100.00;98270.06;2595851;28;20140;-82
2022/06/13 02:23:59;;;;;;;9.13;6.57;;;;;;;15.42;100.00;98271.75;2595857;28;20492;-83
2022/06/13 02:25:19;;;;;;;6.90;5.10;;;;;;;15.44;100.00;98272.53;2595522;28;20084;-83
2022/06/13 02:26:38;;;;;;;8.20;5.78;;;;;;;15.40;100.00;98277.09;2595570;28;20045;-87
2022/06/13 02:28:04;;;;;;;7.38;5.20;;;;;;;15.45;100.00;98269.81;2595574;28;20049;-81
2022/06/13 02:29:28;;;;;;;7.18;5.38;;;;;;;15.56;100.00;98271.91;2595658;28;20072;-82
2022/06/13 02:30:50;;;;;;;8.35;5.10;;;;;;;15.62;100.00;98265.47;2595727;28;20449;-85
2022/06/13 02:32:14;;;;;;;6.35;5.00;;;;;;;15.70;100.00;98265.06;2596054;28;20532;-83
2022/06/13 02:33:46;;;;;;;6.60;5.25;;;;;;;15.74;100.00;98259.56;2596741;28;20060;-82
2022/06/13 02:35:10;;;;;;;5.97;5.20;;;;;;;15.77;99.80;98258.53;2597369;28;20077;-82
2022/06/13 02:36:41;;;;;;;7.15;5.05;;;;;;;15.65;100.00;98258.25;2597758;28;20945;-81
2022/06/13 02:38:06;;;;;;;7.20;5.32;;;;;;;15.66;100.00;98267.00;2597181;28;20046;-83
2022/06/13 02:39:30;;;;;;;5.78;5.18;;;;;;;15.63;100.00;98277.72;2597488;28;20046;-82
2022/06/13 02:40:49;;;;;;;6.75;5.50;;;;;;;15.74;100.00;98285.09;2597793;28;20053;-82
2022/06/13 02:42:14;;;;;;;6.10;5.50;;;;;;;15.73;100.00;98286.88;2597711;28;20079;-81
2022/06/13 02:43:39;;;;;;;7.40;5.18;;;;;;;15.73;100.00;98284.25;2597715;28;20049;-82
2022/06/13 02:45:08;;;;;;;5.32;4.82;;;;;;;15.72;100.00;98282.53;2597467;28;20067;-82
2022/06/13 02:46:35;;;;;;;7.13;5.10;;;;;;;15.70;100.00;98276.47;2597670;28;20507;-84
2022/06/13 02:48:08;;;;;;;7.53;4.93;;;;;;;15.67;99.67;98271.34;2597142;28;20064;-81
2022/06/13 02:49:33;;;;;;;7.65;5.18;;;;;;;15.67;100.00;98274.84;2597615;28;20473;-85
2022/06/13 02:51:06;;;;;;;5.30;4.53;;;;;;;15.65;100.00;98279.38;2597479;28;20053;-83
2022/06/13 02:52:28;;;;;;;7.22;5.28;;;;;;;15.61;100.00;98275.16;2597289;28;20072;-83
2022/06/13 02:54:00;;;;;;;6.32;5.10;;;;;;;15.60;100.00;98284.00;2597440;28;20571;-81
2022/06/13 02:55:17;;;;;;;6.30;4.82;;;;;;;15.59;100.00;98277.03;2597406;28;20095;-82
2022/06/13 02:59:01;;;;;;;5.22;4.72;;;;;;;15.59;100.00;98277.03;2597422;28;20050;-81
2022/06/13 03:00:33;;;;;;;7.03;5.13;;;;;;;15.59;100.00;98281.47;2594305;28;20063;-81
2022/06/13 03:01:51;;;;;;;6.22;5.45;;;;;;;15.53;100.00;98278.19;2595207;28;20049;-82
2022/06/13 03:03:36;;;;;;;8.10;5.53;;;;;;;15.43;100.00;98276.94;2597672;28;20056;-81
2022/06/13 03:05:03;;;;;;;5.90;5.30;;;;;;;15.39;100.00;98280.66;2596630;28;20053;-82
2022/06/13 03:06:47;;;;;;;8.00;5.70;;;;;;;15.45;100.00;98271.59;2597546;28;20606;-81
2022/06/13 03:08:24;;;;;;;6.72;5.60;;;;;;;15.48;100.00;98274.06;2590320;28;20487;-81
2022/06/13 03:09:51;;;;;;;6.82;5.75;;;;;;;15.48;100.00;98276.72;2595525;28;20077;-81
2022/06/13 03:11:06;;;;;;;7.95;5.60;;;;;;;15.48;100.00;98280.22;2596679;28;20518;-83
2022/06/13 03:13:07;;;;;;;6.35;5.75;;;;;;;15.49;100.00;98279.28;2596464;28;20107;-83
2022/06/13 03:14:45;;;;;;;6.15;5.35;;;;;;;15.57;100.00;98286.81;2594949;28;20046;-84
2022/06/13 03:16:16;;;;;;;5.82;5.22;;;;;;;15.59;100.00;98287.56;2598932;28;20044;-83
2022/06/13 03:17:44;;;;;;;7.60;5.43;;;;;;;15.62;100.00;98290.06;2599952;28;20068;-82
2022/06/13 03:19:14;;;;;;;6.85;4.93;;;;;;;15.68;100.00;98292.41;2596231;28;20041;-83
2022/06/13 03:20:48;;;;;;;7.30;5.03;;;;;;;15.74;100.00;98296.50;2594676;28;20049;-86
2022/06/13 03:22:07;;;;;;;5.88;5.30;;;;;;;15.76;100.00;98292.00;2595889;28;20106;-82
2022/06/13 03:23:32;;;;;;;6.22;5.05;;;;;;;15.74;100.00;98301.78;2596916;28;20622;-84
2022/06/13 03:25:13;;;;;;;6.97;5.30;;;;;;;15.77;100.00;98298.97;2596290;28;20591;-81
2022/06/13 03:26:37;;;;;;;7.05;5.20;;;;;;;15.73;100.00;98293.94;2596455;28;20041;-82
2022/06/13 03:27:59;;;;;;;7.53;5.53;;;;;;;15.70;100.00;98294.09;2595725;28;20045;-82
2022/06/13 03:29:22;;;;;;;6.15;5.45;;;;;;;15.67;100.00;98297.75;2596784;28;20089;-82
2022/06/13 03:30:40;;;;;;;;;;;;;;;15.65;100.00;98303.13;2596997;28;20141;-81
2022/06/13 03:32:02;;;;;;;6.90;5.07;;;;;;;15.68;100.00;98310.00;2595178;28;20578;-81
2022/06/13 03:33:40;;;;;;;6.28;5.50;;;;;;;15.68;100.00;98302.09;2595103;28;20656;-82
2022/06/13 03:35:00;;;;;;;6.43;4.85;;;;;;;15.76;100.00;98309.59;2596169;28;20056;-81
2022/06/13 03:36:18;;;;;;;7.20;4.80;;;;;;;15.67;100.00;98316.22;2596052;28;20057;-80
2022/06/13 03:37:41;;;;;;;6.75;4.95;;;;;;;15.75;100.00;98324.59;2595501;28;20052;-82
2022/06/13 03:39:28;;;;;;;7.22;4.90;;;;;;;15.82;100.00;98322.50;2596162;28;20049;-82
2022/06/13 03:40:50;;;;;;;5.32;4.78;;;;;;;15.84;100.00;98327.69;2595835;28;20500;-86
2022/06/13 03:42:13;;;;;;;5.72;5.13;;;;;;;15.79;100.00;98327.94;2595989;28;20050;-81
2022/06/13 03:43:33;;;;;;;6.25;5.53;;;;;;;15.77;100.00;98329.78;2595636;28;20049;-82
2022/06/13 03:45:07;;;;;;;5.88;5.07;;;;;;;15.76;100.00;98330.72;2594880;28;20045;-81
2022/06/13 03:46:32;;;;;;;5.40;4.55;;;;;;;15.84;100.00;98339.13;2595649;28;20058;-81
2022/06/13 03:48:15;;;;;;;7.45;5.10;;;;;;;15.91;100.00;98345.81;2595933;28;20107;-81
2022/06/13 03:49:34;;;;;;;5.22;4.72;;;;;;;15.91;99.71;98350.25;2595599;28;20467;-82
2022/06/13 03:51:00;;;;;;;5.80;4.93;;;;;;;15.90;100.00;98346.75;2596236;28;20096;-82
2022/06/13 03:52:17;;;;;;;5.72;5.13;;;;;;;15.84;100.00;98340.88;2595526;28;20126;-82
2022/06/13 03:53:50;;;;;;;7.40;5.10;;;;;;;15.80;100.00;98342.84;2596059;28;20495;-82
2022/06/13 03:55:30;;;;;;;6.05;5.40;;;;;;;15.69;100.00;98346.00;2595796;28;20176;-82
2022/06/13 03:57:09;;;;;;;7.88;4.85;;;;;;;15.78;100.00;98336.78;2595979;28;20056;-82
2022/06/13 03:58:58;;;;;;;5.70;5.10;;;;;;;15.80;100.00;98332.28;2596378;28;20042;-79
2022/06/13 04:00:25;;;;;;;7.88;5.45;;;;;;;15.80;100.00;98317.28;2595857;28;20058;-80
2022/06/13 04:01:58;;;;;;;7.28;5.13;;;;;;;15.83;100.00;98318.94;2596635;28;20111;-80
2022/06/13 04:03:15;;;;;;;9.15;5.28;;;;;;;15.79;100.00;98318.22;2595638;28;20394;-80
2022/06/13 04:04:39;;;;;;;6.60;5.25;;;;;;;15.82;100.00;98315.44;2595203;28;20049;-81
2022/06/13 04:05:57;;;;;;;8.05;4.68;;;;;;;15.74;100.00;98309.69;2596229;28;20045;-82
2022/06/13 04:07:13;;;;;;;6.07;5.47;;;;;;;15.73;100.00;98315.06;2595783;28;20099;-82
2022/06/13 04:08:35;;;;;;;6.57;5.88;;;;;;;15.82;100.00;98319.88;2596960;28;20103;-82
2022/06/13 04:09:57;;;;;;;7.57;5.65;;;;;;;15.87;100.00;98317.00;2596888;28;20057;-82
2022/06/13 04:11:27;;;;;;;;;;;;;;;15.88;100.00;98313.41;2597448;28;20069;-85
2022/06/13 04:13:15;;;;;;;9.65;5.20;;;;;;;15.88;100.00;98308.97;2596916;28;20126;-82
2022/06/13 04:14:58;;;;;;;5.20;4.70;;;;;;;16.00;100.00;98320.75;2596571;28;20104;-82
2022/06/13 04:16:27;;;;;;;6.70;4.82;;;;;;;16.06;100.00;98323.03;2596717;28;20065;-80
2022/06/13 04:18:01;;;;;;;5.93;4.65;;;;;;;16.10;100.00;98319.28;2596833;28;20069;-87
2022/06/13 04:19:34;;;;;;;7.13;5.00;;;;;;;16.12;100.00;98318.34;2596242;28;20053;-83
2022/06/13 04:21:20;;;;;;;6.43;5.25;;;;;;;16.10;100.00;98316.66;2596617;28;20049;-81
2022/06/13 04:22:52;;;;;;;7.55;5.07;;;;;;;16.08;100.00;98321.16;2596530;28;20057;-81
2022/06/13 04:24:20;;;;;;;5.53;4.80;;;;;;;16.06;99.97;98330.09;2596906;28;20049;-81
2022/06/13 04:26:06;;;;;;;5.78;5.10;;;;;;;16.03;100.00;98328.50;2596270;28;20538;-81
2022/06/13 04:27:28;;;;;;;6.00;4.93;;;;;;;15.97;100.00;98317.41;2596064;28;20053;-81
2022/06/13 04:28:52;;;;;;;6.10;5.03;;;;;;;15.98;100.00;98314.66;2596606;28;20061;-84
2022/06/13 04:30:22;;;;;;;5.53;5.03;;;;;;;15.98;100.00;98312.00;2596589;28;20053;-81
2022/06/13 04:31:40;;;;;;;6.82;5.60;;;;;;;15.95;100.00;98310.41;2596377;28;20504;-81
2022/06/13 04:33:05;;;;;;;5.40;4.90;;;;;;;15.99;100.00;98315.53;2596533;28;20107;-81
2022/06/13 04:34:27;;;;;;;5.80;5.20;;;;;;;16.00;100.00;98312.81;2596729;28;20057;-81
2022/06/13 04:35:45;;;;;;;7.78;5.22;;;;;;;15.94;100.00;98313.97;2596643;28;20220;-81
2022/06/13 04:37:04;;;;;;;6.47;5.25;;;;;;;15.94;100.00;98307.84;2596379;28;20544;-82
2022/06/13 04:38:22;;;;;;;7.18;5.85;;;;;;;16.00;100.00;98309.31;2596491;28;20056;-81
2022/06/13 04:39:40;;;;;;;6.43;5.38;;;;;;;16.03;99.58;98295.94;2596555;28;20488;-80
2022/06/13 04:40:59;;;;;;;8.73;5.53;;;;;;;16.02;100.00;98295.09;2596551;28;20054;-82
2022/06/13 04:42:17;;;;;;;6.53;5.07;;;;;;;16.09;99.00;98287.69;2596593;28;20060;-80
2022/06/13 04:43:36;;;;;;;6.90;5.00;;;;;;;16.15;98.72;98287.38;2596407;28;20049;-81
2022/06/13 04:44:57;;;;;;;5.60;5.03;;;;;;;16.16;99.34;98283.78;2596403;28;20049;-83
2022/06/13 04:46:17;;;;;;;5.50;5.00;;;;;;;16.26;99.05;98285.94;2596427;28;20492;-82
2022/06/13 04:47:33;;;;;;;5.75;5.00;;;;;;;16.30;98.81;98284.84;2596532;28;20172;-84
2022/06/13 04:48:51;;;;;;;5.65;5.07;;;;;;;16.31;99.47;98289.19;2596510;28;20055;-82
2022/06/13 04:50:12;;;;;;;7.57;5.60;;;;;;;16.37;98.91;98283.56;2596304;28;20084;-79
2022/06/13 04:51:41;;;;;;;6.85;4.95;;;;;;;16.40;99.27;98291.34;2596403;28;20480;-78
2022/06/13 04:52:59;;;;;;;6.05;4.60;;;;;;;16.45;99.20;98289.28;2595881;28;20059;-82
2022/06/13 04:54:25;;;;;;;5.80;4.95;;;;;;;16.46;97.67;98284.84;2594602;28;20045;-79
2022/06/13 04:55:44;;;;;;;8.98;5.40;;;;;;;16.47;98.89;98292.69;2595266;28;20085;-80
2022/06/13 04:57:00;;;;;;;7.22;5.28;;;;;;;16.39;100.00;98297.56;2595809;28;20131;-81
2022/06/13 04:58:26;;;;;;;9.02;5.35;;;;;;;16.42;99.70;98297.38;2595188;28;20503;-81
2022/06/13 04:59:43;;;;;;;8.10;5.50;;;;;;;16.48;99.76;98301.47;2595189;28;20045;-80
2022/06/13 05:01:02;;;;;;;10.65;5.65;;;;;;;16.48;99.05;98301.47;2595771;28;20057;-81
2022/06/13 05:02:22;;;;;;;6.03;5.43;;;;;;;16.46;99.69;98298.91;2596125;28;20088;-81
2022/06/13 05:03:42;;;;;;;6.07;4.85;;;;;;;16.50;98.72;98295.19;2595667;28;20049;-80
2022/06/13 05:04:58;;;;;;;6.35;5.63;;;;;;;16.57;98.34;98289.56;2595682;28;20464;-82
2022/06/13 05:06:36;;;;;;;6.57;5.45;;;;;;;16.68;98.98;98297.75;2596130;28;20092;-80
2022/06/13 05:07:52;;;;;;;8.65;5.90;;;;;;;16.65;99.10;98293.47;2595885;28;20056;-80
2022/06/13 05:09:10;;;;;;;8.65;5.47;;;;;;;16.72;97.68;98293.97;2596072;28;20068;-81
2022/06/13 05:10:29;;;;;;;6.82;5.00;;;;;;;16.77;97.70;98297.25;2596100;28;20099;-80
2022/06/13 05:11:54;;;;;;;6.38;5.53;;;;;;;16.85;97.61;98295.94;2596260;28;20053;-80
2022/06/13 05:13:10;;;;;;;5.93;5.40;;;;;;;16.89;97.31;98294.81;2596098;28;20049;-81
2022/06/13 05:14:35;;;;;;;6.80;5.32;;;;;;;16.91;98.02;98306.19;2596083;28;20049;-81
2022/06/13 05:15:59;;;;;;;7.65;5.80;;;;;;;16.88;98.93;98298.41;2596121;28;20046;-81
2022/06/13 05:17:23;;;;;;;7.22;5.60;;;;;;;16.93;97.38;98304.31;2596143;28;20758;-81
2022/06/13 05:19:06;;;;;;;6.43;5.28;;;;;;;16.90;97.44;98302.69;2596456;28;20483;-81
2022/06/13 05:21:05;;;;;;;8.48;5.43;;;;;;;16.89;98.13;98300.09;2595972;28;20045;-81
2022/06/13 05:22:30;;;;;;;5.93;5.32;;;;;;;16.92;97.03;98297.31;2595681;28;20057;-82
2022/06/13 05:23:57;;;;;;;8.18;5.60;;;;;;;16.90;97.87;98296.53;2596325;28;20076;-81
2022/06/13 05:25:29;;;;;;;6.38;5.68;;;;;;;16.92;98.24;98294.66;2595736;28;20053;-81
2022/06/13 05:26:44;;;;;;;6.17;5.23;;;;;;;16.88;98.00;98287.84;2596171;28;20045;-81
2022/06/13 05:28:00;;;;;;;7.15;5.90;;;;;;;16.90;97.31;98297.38;2596036;28;20473;-80
2022/06/13 05:29:15;;;;;;;7.50;5.60;;;;;;;16.94;96.76;98295.44;2596139;28;20045;-80
2022/06/13 05:30:31;;;;;;;5.43;4.85;;;;;;;16.92;97.04;98303.44;2595796;28;20130;-80
2022/06/13 05:31:46;;;;;;;7.40;4.95;;;;;;;16.91;97.13;98300.91;2595951;28;20049;-80
2022/06/13 05:33:02;;;;;;;6.65;5.15;;;;;;;16.92;97.09;98303.44;2594693;28;20056;-81
2022/06/13 05:34:28;;;;;;;7.15;5.50;;;;;;;16.98;95.57;98306.69;2595412;28;20057;-81
2022/06/13 05:35:45;;;;;;;7.82;5.10;;;;;;;17.00;95.63;98299.56;2595820;28;20053;-81
2022/06/13 05:37:02;;;;;;;5.90;5.30;;;;;;;17.03;96.02;98302.84;2595472;28;20069;-81
2022/06/13 05:38:31;;;;;;;8.75;5.30;;;;;;;16.95;96.05;98302.44;2593460;28;20524;-81
2022/06/13 05:39:47;;;;;;;7.05;5.03;;;;;;;16.95;95.19;98302.44;2594773;28;20103;-81
2022/06/13 05:41:02;;;;;;;7.07;5.32;;;;;;;16.97;95.59;98307.59;2595932;28;20152;-80
2022/06/13 05:42:18;;;;;;;5.82;4.88;;;;;;;16.88;95.61;98307.22;2595232;28;20187;-81
2022/06/13 05:43:34;;;;;;;7.20;5.20;;;;;;;16.95;95.01;98302.44;2595394;28;20061;-80
2022/06/13 05:44:49;;;;;;;7.07;5.38;;;;;;;16.91;96.21;98306.19;2595513;28;20056;-80
2022/06/13 05:46:07;;;;;;;7.07;5.70;;;;;;;16.94;95.75;98313.94;2595721;28;20476;-80
2022/06/13 05:47:22;;;;;;;6.22;4.75;;;;;;;16.99;95.35;98308.41;2596178;28;20072;-81
2022/06/13 05:48:38;;;;;;;6.07;5.07;;;;;;;16.94;95.01;98309.50;2595040;28;20458;-79
2022/06/13 05:49:54;;;;;;;5.53;5.03;;;;;;;16.92;95.53;98313.19;2594612;28;20499;-84
2022/06/13 05:51:09;;;;;;;10.18;5.30;;;;;;;16.99;95.70;98319.84;2588647;28;20045;-80
2022/06/13 05:52:25;;;;;;;6.63;5.20;;;;;;;17.10;94.86;98318.41;2592446;28;20057;-81
2022/06/13 05:53:40;;;;;;;7.97;5.32;;;;;;;17.02;96.47;98321.47;2595393;28;20053;-82
2022/06/13 05:54:56;;;;;;;5.75;5.20;;;;;;;17.07;96.01;98322.94;2596046;28;20093;-83
2022/06/13 05:56:12;;;;;;;7.22;5.00;;;;;;;17.17;96.32;98319.72;2596029;28;20045;-80
2022/06/13 05:57:29;;;;;;;8.88;5.72;;;;;;;17.13;96.47;98323.50;2595947;28;20626;-80
2022/06/13 05:58:45;;;;;;;6.10;5.50;;;;;;;17.19;97.38;98325.81;2595619;28;20531;-80
2022/06/13 06:00:00;;;;;;;7.35;5.50;;;;;;;17.14;97.59;98318.13;2595290;28;20053;-83
2022/06/13 06:01:16;;;;;;;6.53;4.85;;;;;;;17.21;95.22;98322.13;2595557;28;20080;-81
2022/06/13 06:02:31;;;;;;;5.68;5.00;;;;;;;17.25;95.75;98324.59;2595753;28;20045;-81
2022/06/13 06:03:47;;;;;;;5.88;5.30;;;;;;;17.42;95.39;98319.19;2595918;28;20488;-80
2022/06/13 06:05:03;;;;;;;6.35;4.50;;;;;;;17.61;95.21;98318.97;2595726;28;20042;-80
2022/06/13 06:06:24;;;;;;;7.15;5.05;;;;;;;17.68;93.27;98318.59;2596185;28;20520;-80
2022/06/13 06:07:40;;;;;;;5.32;4.82;;;;;;;17.83;92.82;98317.69;2595768;28;20060;-80
2022/06/13 06:08:56;;;;;;;8.57;4.63;;;;;;;17.79;93.11;98317.00;2597376;28;20151;-81
2022/06/13 06:10:23;;;;;;;6.55;4.72;;;;;;;17.86;92.70;98320.13;2597895;28;20077;-81
2022/06/13 06:11:38;;;;;;;5.88;4.55;;;;;;;17.90;91.23;98313.72;2598112;28;20060;-80
2022/06/13 06:12:54;;;;;;;5.00;4.50;;;;;;;17.87;91.76;98319.19;2597892;28;20045;-80
2022/06/13 06:14:09;;;;;;;5.90;4.80;;;;;;;17.97;91.93;98318.66;2597902;28;20054;-81
2022/06/13 06:15:25;;;;;;;5.32;4.60;;;;;;;17.95;91.03;98315.25;2597887;28;20049;-80
2022/06/13 06:16:40;;;;;;;6.53;4.18;;;;;;;18.07;85.35;98310.06;2598232;28;20092;-83
2022/06/13 06:17:56;;;;;;;6.82;3.90;;;;;;;18.04;84.73;98312.06;2597793;28;20111;-80
2022/06/13 06:19:12;;;;;;;6.30;4.05;;;;;;;18.10;86.52;98316.16;2598112;28;20057;-80
2022/06/13 06:20:28;;;;;;;6.32;4.60;;;;;;;18.10;86.10;98309.03;2597633;28;20049;-80
2022/06/13 06:21:43;;;;;;;5.22;4.30;;;;;;;18.24;86.73;98316.16;2597902;28;20053;-82
2022/06/13 06:22:58;;;;;;;6.93;4.03;;;;;;;18.34;83.61;98316.44;2597853;28;20484;-80
2022/06/13 06:24:14;;;;;;;7.05;4.03;;;;;;;18.35;83.59;98318.13;2597875;28;20061;-81
2022/06/13 06:25:31;;;;;;;6.15;3.90;;;;;;;18.24;83.88;98317.94;2597932;28;20046;-81
2022/06/13 06:26:46;;;;;;;5.45;3.97;;;;;;;18.20;84.74;98315.47;2597742;28;20053;-79
2022/06/13 06:28:03;;;;;;;6.80;4.15;;;;;;;18.24;83.08;98317.94;2597446;28;20045;-81
2022/06/13 06:29:19;;;;;;;6.82;3.72;;;;;;;18.28;83.33;98316.78;2598072;28;20049;-80
2022/06/13 06:30:35;;;;;;;6.25;4.32;;;;;;;18.43;82.89;98322.94;2597963;28;20049;-78
2022/06/13 06:31:50;;;;;;;4.45;3.67;;;;;;;18.46;83.23;98320.09;2597832;28;20092;-78
2022/06/13 06:33:06;;;;;;;4.80;4.07;;;;;;;18.62;83.13;98322.66;2597480;28;20053;-78
2022/06/13 06:34:22;;;;;;;8.65;4.63;;;;;;;18.68;83.15;98324.91;2597518;28;20053;-78
2022/06/13 06:35:38;;;;;;;5.90;3.63;;;;;;;18.73;81.24;98328.13;2597596;28;20712;-79
2022/06/13 06:36:54;;;;;;;4.35;3.95;;;;;;;18.83;80.40;98330.19;2597719;28;20060;-79